Time;durP1;ratioP1;P1;durP2;ratioP2;P2;SDS_P1;SDS_P2;PMS_P1;PMS_P2;Temp;Humidity;BMP_temperature;BMP_pressure;BME280_temperature;BME280_humidity;BME280_pressure;Samples;Min_cycle;Max_cycle;Signal;HPM_P1;HPM_P2
2023/08/25 00:00:19;;;;;;;5.67;4.00;;;29.80;68.60;;;;;;1926226;74;21099;-82
2023/08/25 00:03:09;;;;;;;6.85;4.30;;;29.70;69.00;;;;;;1926212;74;21150;-82
2023/08/25 00:06:01;;;;;;;6.65;4.30;;;29.70;69.30;;;;;;1926108;74;21550;-82
2023/08/25 00:08:53;;;;;;;4.47;3.92;;;29.70;69.50;;;;;;1926099;74;21342;-82
2023/08/25 00:11:44;;;;;;;4.75;4.30;;;29.50;69.80;;;;;;1926144;74;21626;-82
2023/08/25 00:14:36;;;;;;;7.65;4.30;;;29.40;70.20;;;;;;1926038;74;21052;-82
2023/08/25 00:17:27;;;;;;;4.67;4.10;;;29.30;70.70;;;;;;1926040;74;21108;-83
2023/08/25 00:20:19;;;;;;;4.97;4.28;;;29.20;70.70;;;;;;1925876;74;21634;-82
2023/08/25 00:23:10;;;;;;;5.08;4.37;;;29.20;70.80;;;;;;1925868;74;21559;-82
2023/08/25 00:26:03;;;;;;;4.60;4.20;;;29.10;71.00;;;;;;1926123;74;21175;-81
2023/08/25 00:28:54;;;;;;;5.08;4.28;;;29.10;71.10;;;;;;1926022;74;21108;-82
2023/08/25 00:31:46;;;;;;;7.35;4.10;;;29.00;71.10;;;;;;1925818;74;21120;-82
2023/08/25 00:34:37;;;;;;;4.62;4.22;;;29.10;71.00;;;;;;1926268;74;21085;-82
2023/08/25 00:37:30;;;;;;;4.87;4.17;;;29.20;70.80;;;;;;1926026;74;21550;-82
2023/08/25 00:40:23;;;;;;;5.05;4.00;;;29.20;71.20;;;;;;1926225;74;21896;-81
2023/08/25 00:43:14;;;;;;;4.55;4.15;;;29.20;71.30;;;;;;1926069;74;21160;-81
2023/08/25 00:46:06;;;;;;;5.62;4.72;;;29.20;71.50;;;;;;1926248;74;21113;-82
2023/08/25 00:48:58;;;;;;;4.67;4.10;;;29.10;71.90;;;;;;1926250;74;21154;-81
2023/08/25 00:51:51;;;;;;;4.30;3.87;;;29.10;72.00;;;;;;1926341;74;21168;-81
2023/08/25 00:54:43;;;;;;;4.70;4.20;;;29.00;72.00;;;;;;1926310;74;21178;-81
2023/08/25 00:57:35;;;;;;;6.40;4.08;;;29.00;72.90;;;;;;1926187;74;21104;-81
2023/08/25 01:00:28;;;;;;;7.45;4.72;;;28.90;72.40;;;;;;1926266;74;21085;-81
2023/08/25 01:03:20;;;;;;;5.72;4.20;;;29.00;72.30;;;;;;1926202;74;21104;-81
2023/08/25 01:06:11;;;;;;;4.22;3.90;;;29.00;72.40;;;;;;1926301;74;21053;-81
2023/08/25 01:09:04;;;;;;;5.75;4.00;;;29.10;72.40;;;;;;1926124;74;21555;-81
2023/08/25 01:12:01;;;;;;;6.60;4.47;;;28.90;73.50;;;;;;1926124;74;21944;-81
2023/08/25 01:14:57;;;;;;;4.78;4.30;;;28.90;73.20;;;;;;1926483;74;21148;-81
2023/08/25 01:17:52;;;;;;;4.53;3.90;;;28.80;73.50;;;;;;1926260;74;21164;-81
2023/08/25 01:20:48;;;;;;;5.40;3.80;;;28.80;73.20;;;;;;1926216;74;21088;-81
2023/08/25 01:23:42;;;;;;;5.55;3.70;;;28.80;73.00;;;;;;1926290;74;21098;-81
2023/08/25 01:26:33;;;;;;;4.50;4.10;;;28.80;73.10;;;;;;1926399;74;21092;-81
2023/08/25 01:29:25;;;;;;;5.00;3.77;;;28.80;72.70;;;;;;1926541;74;21152;-81
2023/08/25 01:32:16;;;;;;;4.70;4.30;;;28.80;74.10;;;;;;1926069;74;21599;-81
2023/08/25 01:35:10;;;;;;;4.78;4.00;;;28.70;73.80;;;;;;1926027;74;21098;-81
2023/08/25 01:38:09;;;;;;;5.90;4.40;;;28.70;74.60;;;;;;1925833;74;21109;-81
2023/08/25 01:41:13;;;;;;;4.60;4.20;;;28.50;75.00;;;;;;1926356;74;21109;-81
2023/08/25 01:44:06;;;;;;;5.08;4.17;;;28.30;75.50;;;;;;1926319;74;21094;-81
2023/08/25 01:47:01;;;;;;;5.87;4.10;;;28.30;75.80;;;;;;1926370;74;21143;-81
2023/08/25 01:49:54;;;;;;;4.78;4.37;;;28.20;75.90;;;;;;1926442;74;21110;-81
2023/08/25 01:52:45;;;;;;;5.12;4.33;;;28.10;75.80;;;;;;1910050;74;21570;-81
2023/08/25 01:55:37;;;;;;;4.75;4.20;;;28.20;76.40;;;;;;1904356;75;21538;-81
2023/08/25 01:58:28;;;;;;;5.45;4.30;;;28.10;77.30;;;;;;1904253;75;21595;-81
2023/08/25 02:01:20;;;;;;;6.30;3.90;;;27.90;77.30;;;;;;1904081;75;21120;-81
2023/08/25 02:04:11;;;;;;;5.83;5.33;;;27.90;77.40;;;;;;1904065;75;21570;-81
2023/08/25 02:07:03;;;;;;;7.40;5.00;;;28.00;77.90;;;;;;1904156;75;21164;-81
2023/08/25 02:09:55;;;;;;;6.60;5.12;;;28.00;78.10;;;;;;1916448;75;21194;-81
2023/08/25 02:12:46;;;;;;;7.17;4.30;;;28.00;78.30;;;;;;1916428;75;21087;-81
2023/08/25 02:15:38;;;;;;;4.60;4.17;;;27.90;78.70;;;;;;1916721;75;21109;-81
2023/08/25 02:18:29;;;;;;;5.80;4.62;;;27.90;79.00;;;;;;1916610;75;21597;-81
2023/08/25 02:21:22;;;;;;;6.20;4.78;;;27.80;79.40;;;;;;1916122;75;21310;-81
2023/08/25 02:24:14;;;;;;;9.00;4.40;;;27.80;79.80;;;;;;1916262;75;21071;-81
2023/08/25 02:27:05;;;;;;;5.37;4.22;;;27.70;80.00;;;;;;1916449;75;21091;-81
2023/08/25 02:29:58;;;;;;;5.05;4.50;;;27.90;79.60;;;;;;1916625;75;21122;-81
2023/08/25 02:32:50;;;;;;;6.12;4.75;;;27.90;79.50;;;;;;1916608;75;21626;-81
2023/08/25 02:35:42;;;;;;;7.35;4.67;;;27.80;80.30;;;;;;1916662;75;21059;-81
2023/08/25 02:38:35;;;;;;;4.97;4.58;;;27.70;80.60;;;;;;1916785;75;21115;-81
2023/08/25 02:41:27;;;;;;;5.67;5.03;;;27.60;80.90;;;;;;1916480;75;21629;-81
2023/08/25 02:44:18;;;;;;;6.33;4.75;;;27.50;81.50;;;;;;1916564;75;21549;-81
2023/08/25 02:47:09;;;;;;;6.33;4.50;;;27.60;81.50;;;;;;1916416;75;21099;-81
2023/08/25 02:50:02;;;;;;;6.25;4.70;;;27.60;80.80;;;;;;1916528;75;21086;-81
2023/08/25 02:52:53;;;;;;;6.60;4.80;;;27.50;81.40;;;;;;1922746;74;21114;-81
2023/08/25 02:55:47;;;;;;;6.50;4.25;;;27.40;82.60;;;;;;1932282;74;21189;-82
2023/08/25 02:58:38;;;;;;;7.78;4.47;;;27.20;83.30;;;;;;1931937;74;21167;-81
2023/08/25 03:01:29;;;;;;;4.97;4.50;;;27.20;83.90;;;;;;1932346;74;21147;-81
2023/08/25 03:04:22;;;;;;;5.30;4.80;;;27.20;83.90;;;;;;1932766;74;21631;-81
2023/08/25 03:07:13;;;;;;;5.97;4.62;;;27.20;84.40;;;;;;1915676;74;21096;-81
2023/08/25 03:10:07;;;;;;;5.55;4.72;;;27.10;84.60;;;;;;1851016;77;21684;-81
2023/08/25 03:12:59;;;;;;;5.12;4.33;;;27.00;85.50;;;;;;1901991;75;21175;-81
2023/08/25 03:15:54;;;;;;;5.03;4.53;;;26.80;85.80;;;;;;1902129;75;21084;-81
2023/08/25 03:18:45;;;;;;;4.90;4.40;;;26.90;86.00;;;;;;1902075;75;21163;-81
2023/08/25 03:21:37;;;;;;;7.00;4.75;;;26.80;86.90;;;;;;1901701;75;21066;-81
2023/08/25 03:24:29;;;;;;;6.55;4.70;;;26.70;87.60;;;;;;1902009;75;21192;-81
2023/08/25 03:27:20;;;;;;;7.72;4.80;;;26.60;88.00;;;;;;1901996;75;21096;-81
2023/08/25 03:30:13;;;;;;;5.47;4.72;;;26.60;88.60;;;;;;1902233;75;21138;-81
2023/08/25 03:33:06;;;;;;;9.45;4.90;;;26.50;89.00;;;;;;1902119;75;21222;-81
2023/08/25 03:35:57;;;;;;;5.87;4.85;;;26.50;89.10;;;;;;1901910;75;21207;-81
2023/08/25 03:38:49;;;;;;;5.00;4.58;;;26.60;89.20;;;;;;1902028;75;21154;-81
2023/08/25 03:41:41;;;;;;;6.67;4.75;;;26.70;89.10;;;;;;1902083;75;21066;-81
2023/08/25 03:44:32;;;;;;;5.50;4.90;;;26.80;88.90;;;;;;1901905;75;21073;-81
2023/08/25 03:47:24;;;;;;;6.28;4.55;;;26.90;88.70;;;;;;1901961;75;21181;-81
2023/08/25 03:50:15;;;;;;;5.58;4.87;;;27.00;88.30;;;;;;1901431;75;21192;-81
2023/08/25 03:53:07;;;;;;;7.95;4.90;;;27.20;87.40;;;;;;1901432;75;21172;-81
2023/08/25 03:55:58;;;;;;;5.35;4.85;;;27.20;86.90;;;;;;1901485;75;21183;-81
2023/08/25 03:58:49;;;;;;;5.42;4.92;;;27.40;86.80;;;;;;1901599;75;21105;-81
2023/08/25 04:01:40;;;;;;;7.80;5.37;;;27.40;86.30;;;;;;1901777;75;21203;-81
2023/08/25 04:04:32;;;;;;;5.30;4.70;;;27.50;86.40;;;;;;1901861;75;21140;-81
2023/08/25 04:07:24;;;;;;;5.62;4.70;;;27.40;86.20;;;;;;1901828;75;21254;-81
2023/08/25 04:10:16;;;;;;;5.25;4.75;;;27.20;86.80;;;;;;1901912;75;21136;-81
2023/08/25 04:13:07;;;;;;;4.53;4.12;;;26.80;88.40;;;;;;1901958;75;21585;-81
2023/08/25 04:16:01;;;;;;;6.05;4.37;;;26.50;89.10;;;;;;1902035;75;21455;-81
2023/08/25 04:18:53;;;;;;;5.55;4.67;;;26.40;89.50;;;;;;1902039;75;21110;-81
2023/08/25 04:21:44;;;;;;;5.22;4.65;;;26.40;90.00;;;;;;1901825;75;21109;-81
2023/08/25 04:24:38;;;;;;;4.97;4.47;;;26.40;90.10;;;;;;1902024;75;21105;-81
2023/08/25 04:27:30;;;;;;;5.33;4.83;;;26.30;90.20;;;;;;1902062;75;21109;-82
2023/08/25 04:30:23;;;;;;;5.03;4.35;;;26.20;90.60;;;;;;1902198;75;21058;-82
2023/08/25 04:33:16;;;;;;;5.45;4.42;;;26.00;90.80;;;;;;1902065;75;21551;-82
2023/08/25 04:36:08;;;;;;;6.35;4.12;;;25.90;91.10;;;;;;1902028;75;21146;-82
2023/08/25 04:39:00;;;;;;;5.67;4.40;;;25.90;91.20;;;;;;1902120;75;21175;-82
2023/08/25 04:41:51;;;;;;;5.55;4.03;;;25.80;91.40;;;;;;1901896;75;21128;-82
2023/08/25 04:44:44;;;;;;;4.20;3.80;;;25.80;91.60;;;;;;1901841;75;21058;-82
2023/08/25 04:47:35;;;;;;;5.08;4.05;;;25.80;91.80;;;;;;1902029;75;21195;-82
2023/08/25 04:50:27;;;;;;;4.08;3.75;;;25.70;91.90;;;;;;1902048;75;21136;-82
2023/08/25 04:53:18;;;;;;;5.40;3.50;;;25.60;92.60;;;;;;1902090;75;21171;-81
2023/08/25 04:56:10;;;;;;;4.60;3.90;;;25.60;92.80;;;;;;1913318;75;21183;-82
2023/08/25 04:59:01;;;;;;;4.60;3.83;;;25.60;93.20;;;;;;1913655;75;21130;-82
2023/08/25 05:01:53;;;;;;;4.67;3.95;;;25.60;93.80;;;;;;1913766;75;21101;-82
2023/08/25 05:04:44;;;;;;;5.60;3.83;;;25.50;94.40;;;;;;1913832;75;21113;-82
2023/08/25 05:07:36;;;;;;;6.08;3.65;;;25.40;94.50;;;;;;1913622;75;21136;-81
2023/08/25 05:10:28;;;;;;;6.05;4.03;;;25.40;95.20;;;;;;1913595;75;21505;-82
2023/08/25 05:13:19;;;;;;;6.50;4.12;;;25.30;95.70;;;;;;1913818;75;21081;-82
2023/08/25 05:16:12;;;;;;;5.33;3.47;;;25.30;96.40;;;;;;1913803;75;21081;-82
2023/08/25 05:19:20;;;;;;;8.05;4.05;;;25.30;96.70;;;;;;1913782;75;21584;-81
2023/08/25 05:22:14;;;;;;;;;;;25.20;98.00;;;;;;1916559;75;21182;-81
2023/08/25 05:25:06;;;;;;;4.92;3.85;;;25.20;98.80;;;;;;1913718;75;20173;-82
2023/08/25 05:28:00;;;;;;;6.00;3.87;;;25.10;99.60;;;;;;1913481;75;21124;-81
2023/08/25 05:30:51;;;;;;;7.47;4.33;;;25.10;99.90;;;;;;1913400;75;21143;-81
2023/08/25 05:33:45;;;;;;;4.10;3.58;;;25.10;99.90;;;;;;1913455;75;21182;-81
2023/08/25 05:36:38;;;;;;;4.85;3.75;;;25.00;99.90;;;;;;1913447;75;21058;-81
2023/08/25 05:39:30;;;;;;;6.05;3.83;;;24.90;99.90;;;;;;1913657;75;21190;-81
2023/08/25 05:42:22;;;;;;;5.17;4.03;;;25.00;99.90;;;;;;1913671;75;21042;-82
2023/08/25 05:45:13;;;;;;;8.13;3.83;;;25.00;99.90;;;;;;1913590;75;21144;-82
2023/08/25 05:48:06;;;;;;;9.35;3.92;;;25.00;99.90;;;;;;1913475;75;21152;-82
2023/08/25 05:50:58;;;;;;;5.45;3.87;;;25.00;99.90;;;;;;1913457;75;21553;-82
2023/08/25 05:53:50;;;;;;;11.33;4.30;;;25.10;99.90;;;;;;1913320;75;21119;-82
2023/08/25 05:56:41;;;;;;;8.48;3.87;;;25.10;99.90;;;;;;1905860;74;21179;-82
2023/08/25 05:59:38;;;;;;;6.10;4.20;;;25.20;99.90;;;;;;1903812;75;21131;-82
2023/08/25 06:02:33;;;;;;;6.03;3.77;;;25.20;99.90;;;;;;1904110;75;21097;-81
2023/08/25 06:05:26;;;;;;;7.53;4.12;;;25.20;99.90;;;;;;1904152;75;21606;-81
2023/08/25 06:08:17;;;;;;;7.92;3.60;;;25.30;99.90;;;;;;1904067;75;21130;-81
2023/08/25 06:11:08;;;;;;;5.65;3.85;;;25.30;99.90;;;;;;1916463;75;21166;-81
2023/08/25 06:14:00;;;;;;;5.30;3.80;;;25.20;99.90;;;;;;1904210;75;21166;-82
2023/08/25 06:16:52;;;;;;;6.35;3.85;;;25.20;99.90;;;;;;1916367;75;21065;-82
2023/08/25 06:19:43;;;;;;;6.45;3.83;;;25.30;99.90;;;;;;1916464;75;21112;-82
2023/08/25 06:22:37;;;;;;;6.87;3.87;;;25.40;99.90;;;;;;1916147;75;21081;-81
2023/08/25 06:25:28;;;;;;;7.15;4.50;;;25.40;99.90;;;;;;1916498;75;21526;-81
2023/08/25 06:28:20;;;;;;;6.85;3.80;;;25.40;99.90;;;;;;1916335;75;21093;-81
2023/08/25 06:31:12;;;;;;;4.67;4.15;;;25.40;99.90;;;;;;1916086;75;21113;-82
2023/08/25 06:34:04;;;;;;;6.65;4.20;;;25.50;99.90;;;;;;1915988;75;21072;-82
2023/08/25 06:36:56;;;;;;;6.05;4.00;;;25.50;99.90;;;;;;1922154;74;21136;-83
2023/08/25 06:39:47;;;;;;;8.48;3.92;;;25.50;99.90;;;;;;1934574;74;21043;-81
2023/08/25 06:42:39;;;;;;;7.87;4.20;;;25.50;99.90;;;;;;1934419;74;21148;-82
2023/08/25 06:45:31;;;;;;;7.60;4.12;;;25.60;99.90;;;;;;1934336;74;21095;-82
2023/08/25 06:48:22;;;;;;;8.23;4.60;;;25.60;99.90;;;;;;1934095;74;21121;-81
2023/08/25 06:51:14;;;;;;;6.62;4.12;;;25.70;99.90;;;;;;1922043;74;21169;-81
2023/08/25 06:54:06;;;;;;;7.12;4.30;;;25.80;99.90;;;;;;1922180;74;21100;-81
2023/08/25 06:56:58;;;;;;;6.42;3.65;;;25.90;99.90;;;;;;1922426;74;21123;-82
2023/08/25 06:59:49;;;;;;;6.37;4.35;;;26.10;99.90;;;;;;1934738;74;21083;-82
2023/08/25 07:02:42;;;;;;;7.10;4.05;;;26.20;99.90;;;;;;1934775;74;21095;-82
2023/08/25 07:05:37;;;;;;;8.15;4.25;;;26.40;99.90;;;;;;1934920;74;21103;-82
2023/08/25 07:08:29;;;;;;;9.50;4.90;;;26.60;99.90;;;;;;1934788;74;21519;-82
2023/08/25 07:11:21;;;;;;;7.90;4.40;;;26.80;99.90;;;;;;1934923;74;21140;-83
2023/08/25 07:14:12;;;;;;;7.17;4.45;;;26.90;99.90;;;;;;1934789;74;21063;-83
2023/08/25 07:17:04;;;;;;;7.33;4.33;;;27.10;99.90;;;;;;1934659;74;21083;-82
2023/08/25 07:19:55;;;;;;;6.08;4.58;;;27.00;99.90;;;;;;1934659;74;21201;-84
2023/08/25 07:22:50;;;;;;;5.95;3.50;;;26.70;99.90;;;;;;1934676;74;21475;-84
2023/08/25 07:25:43;;;;;;;5.08;3.50;;;26.70;99.90;;;;;;1922010;74;21124;-85
2023/08/25 07:28:37;;;;;;;4.95;3.70;;;26.70;99.90;;;;;;1922250;74;21138;-82
2023/08/25 07:31:28;;;;;;;5.20;4.30;;;26.60;99.90;;;;;;1922343;74;21111;-82
2023/08/25 07:34:20;;;;;;;7.33;4.53;;;26.50;99.90;;;;;;1936486;73;21237;-82
2023/08/25 07:37:12;;;;;;;10.10;4.83;;;26.50;99.90;;;;;;1949894;73;21079;-82
2023/08/25 07:40:05;;;;;;;7.30;5.22;;;26.60;99.90;;;;;;1949717;73;21118;-82
2023/08/25 07:43:01;;;;;;;8.08;5.15;;;26.80;99.90;;;;;;1949753;73;21117;-81
2023/08/25 07:45:55;;;;;;;6.20;4.20;;;26.90;99.90;;;;;;1949885;73;21054;-82
2023/08/25 07:48:46;;;;;;;5.53;4.25;;;27.00;99.90;;;;;;1949746;73;21091;-80
2023/08/25 07:51:38;;;;;;;6.75;3.85;;;27.00;99.90;;;;;;1949733;73;21091;-82
2023/08/25 07:54:31;;;;;;;5.83;3.92;;;26.80;99.90;;;;;;1949980;73;21110;-82
2023/08/25 07:57:23;;;;;;;5.53;4.28;;;26.80;99.90;;;;;;1940545;73;21071;-81
2023/08/25 08:00:17;;;;;;;5.08;3.87;;;26.70;99.90;;;;;;1950444;73;21457;-82
2023/08/25 08:03:09;;;;;;;8.95;4.20;;;26.40;99.90;;;;;;1950481;73;21143;-81
2023/08/25 08:06:01;;;;;;;5.80;4.22;;;26.30;99.90;;;;;;1950148;73;21103;-81
2023/08/25 08:08:53;;;;;;;5.10;4.00;;;26.20;99.90;;;;;;1950004;73;21109;-83
2023/08/25 08:11:44;;;;;;;5.12;4.25;;;26.30;99.90;;;;;;1950099;73;21156;-81
2023/08/25 08:14:36;;;;;;;6.37;4.92;;;26.50;99.90;;;;;;1950293;73;21086;-81
2023/08/25 08:17:29;;;;;;;5.70;4.67;;;26.80;99.90;;;;;;1950599;73;21110;-81
2023/08/25 08:20:21;;;;;;;8.35;4.58;;;26.80;99.90;;;;;;1950452;73;21102;-82
2023/08/25 08:23:13;;;;;;;6.37;5.55;;;26.60;99.90;;;;;;1950361;73;21594;-81
2023/08/25 08:26:05;;;;;;;6.47;4.92;;;26.50;99.90;;;;;;1950477;73;21122;-81
2023/08/25 08:28:56;;;;;;;7.72;5.97;;;26.60;99.90;;;;;;1950321;73;21098;-81
2023/08/25 08:31:48;;;;;;;8.30;7.50;;;26.80;99.90;;;;;;1950278;73;21185;-82
2023/08/25 08:34:39;;;;;;;9.35;6.78;;;27.00;99.90;;;;;;1950236;73;21106;-82
2023/08/25 08:37:30;;;;;;;12.15;6.62;;;27.10;99.90;;;;;;1950254;73;21119;-82
2023/08/25 08:40:22;;;;;;;11.35;6.62;;;27.00;99.90;;;;;;1950389;73;21140;-83
2023/08/25 08:43:15;;;;;;;10.65;6.60;;;27.00;99.90;;;;;;1950304;73;21135;-83
2023/08/25 08:46:07;;;;;;;10.20;7.15;;;27.00;99.90;;;;;;1950145;73;21188;-83
2023/08/25 08:48:59;;;;;;;10.75;6.92;;;27.00;99.90;;;;;;1950176;73;21528;-82
2023/08/25 08:51:54;;;;;;;7.37;5.78;;;27.00;99.90;;;;;;1949866;73;21212;-82
2023/08/25 08:54:46;;;;;;;5.12;4.15;;;27.00;99.90;;;;;;1949973;73;21082;-82
2023/08/25 08:57:38;;;;;;;9.85;5.53;;;27.20;99.90;;;;;;1950025;73;21550;-82
2023/08/25 09:00:31;;;;;;;8.85;4.30;;;27.50;99.90;;;;;;1949669;73;21148;-82
2023/08/25 09:03:26;;;;;;;4.80;3.95;;;27.70;99.90;;;;;;1949879;73;21650;-82
2023/08/25 09:06:18;;;;;;;4.95;4.30;;;27.80;99.90;;;;;;1949662;73;21152;-83
2023/08/25 09:09:10;;;;;;;7.80;4.37;;;27.60;99.90;;;;;;1950073;73;21110;-82
2023/08/25 09:12:03;;;;;;;7.33;4.62;;;27.50;99.90;;;;;;1949849;73;21136;-82
2023/08/25 09:14:58;;;;;;;4.72;4.15;;;27.70;99.90;;;;;;1949994;73;21131;-82
2023/08/25 09:18:06;;;;;;;5.67;4.40;;;27.90;99.90;;;;;;1949397;73;21094;-82
2023/08/25 09:21:04;;;;;;;5.55;4.53;;;27.90;99.90;;;;;;1949670;73;21113;-82
2023/08/25 09:23:56;;;;;;;7.78;5.08;;;27.80;99.90;;;;;;1949316;73;21199;-82
2023/08/25 09:26:48;;;;;;;6.85;4.87;;;27.60;99.90;;;;;;1949637;73;21051;-82
2023/08/25 09:29:44;;;;;;;6.95;5.70;;;27.70;99.90;;;;;;1950016;73;21192;-82
2023/08/25 09:32:36;;;;;;;9.78;7.08;;;27.70;99.90;;;;;;1950225;73;21105;-82
2023/08/25 09:35:30;;;;;;;10.25;5.22;;;27.80;99.90;;;;;;1930413;73;21171;-82
2023/08/25 09:38:23;;;;;;;7.00;5.28;;;27.80;99.90;;;;;;1916124;75;21167;-82
2023/08/25 09:41:16;;;;;;;8.63;5.25;;;27.50;99.90;;;;;;1916336;75;21104;-82
2023/08/25 09:44:07;;;;;;;5.15;4.55;;;27.30;99.90;;;;;;1916223;75;21057;-82
2023/08/25 09:46:59;;;;;;;8.28;5.08;;;27.40;99.90;;;;;;1916463;75;21161;-82
2023/08/25 09:49:52;;;;;;;8.65;4.62;;;27.60;99.90;;;;;;1915929;75;21552;-82
2023/08/25 09:52:45;;;;;;;7.05;4.53;;;27.80;99.90;;;;;;1915956;75;21089;-82
2023/08/25 09:55:38;;;;;;;4.95;4.17;;;28.00;99.90;;;;;;1916041;75;21096;-82
2023/08/25 09:58:30;;;;;;;5.90;4.50;;;28.10;99.90;;;;;;1916171;75;21124;-81
2023/08/25 10:01:22;;;;;;;6.20;4.10;;;28.20;99.90;;;;;;1916005;75;21128;-82
2023/08/25 10:04:16;;;;;;;5.35;3.85;;;28.20;99.90;;;;;;1916259;75;21187;-82
2023/08/25 10:07:09;;;;;;;6.08;4.10;;;28.30;99.90;;;;;;1916080;75;21123;-81
2023/08/25 10:10:00;;;;;;;4.58;3.70;;;28.20;99.90;;;;;;1916150;75;21568;-82
2023/08/25 10:12:53;;;;;;;4.55;3.47;;;28.20;99.90;;;;;;1916250;75;21178;-83
2023/08/25 10:15:46;;;;;;;4.62;3.50;;;28.40;99.90;;;;;;1916284;75;21211;-82
2023/08/25 10:18:42;;;;;;;4.28;3.40;;;28.50;99.90;;;;;;1916207;75;21050;-83
2023/08/25 10:21:34;;;;;;;5.70;3.47;;;28.70;99.90;;;;;;1915987;75;21501;-82
2023/08/25 10:24:28;;;;;;;6.00;3.20;;;28.80;99.90;;;;;;1916187;75;21101;-82
2023/08/25 10:27:22;;;;;;;4.72;3.67;;;28.80;99.90;;;;;;1916085;75;21159;-81
2023/08/25 10:30:14;;;;;;;5.72;3.50;;;28.90;99.90;;;;;;1916076;75;21053;-82
2023/08/25 10:33:10;;;;;;;4.80;3.80;;;29.10;99.30;;;;;;1915832;75;21109;-82
2023/08/25 10:36:04;;;;;;;5.10;3.60;;;29.10;98.30;;;;;;1915296;75;21150;-82
2023/08/25 10:39:18;;;;;;;5.15;3.58;;;29.30;97.20;;;;;;1915772;75;21119;-81
2023/08/25 10:42:09;;;;;;;4.50;3.33;;;29.50;97.10;;;;;;1915744;75;21090;-82
2023/08/25 10:47:45;;;;;;;5.65;3.80;;;30.00;94.90;;;;;;1957274;72;22598;-82
2023/08/25 10:50:38;;;;;;;5.60;3.62;;;30.20;94.00;;;;;;1916909;75;21087;-82
2023/08/25 10:53:41;;;;;;;4.17;3.65;;;30.60;93.40;;;;;;1916910;75;21098;-82
2023/08/25 10:56:33;;;;;;;5.08;3.80;;;30.70;91.70;;;;;;1916860;75;21063;-82
2023/08/25 10:59:24;;;;;;;4.72;4.17;;;30.70;91.60;;;;;;1917064;75;21659;-82
2023/08/25 11:02:22;;;;;;;5.70;4.08;;;30.90;92.30;;;;;;1916804;75;21111;-82
2023/08/25 11:05:38;;;;;;;4.83;4.00;;;31.00;92.30;;;;;;1917172;75;21118;-82
2023/08/25 11:08:30;;;;;;;4.70;4.20;;;31.10;92.10;;;;;;1883716;76;21110;-82
2023/08/25 11:11:22;;;;;;;4.50;3.70;;;31.20;92.00;;;;;;1883719;76;21172;-82
2023/08/25 11:14:13;;;;;;;4.85;4.30;;;31.30;92.20;;;;;;1883917;76;21094;-82
2023/08/25 11:17:10;;;;;;;5.22;4.35;;;31.30;91.70;;;;;;1884076;76;21090;-84
2023/08/25 11:20:02;;;;;;;5.90;4.33;;;31.20;92.00;;;;;;1883950;76;21104;-82
2023/08/25 11:22:54;;;;;;;6.58;4.90;;;31.30;92.30;;;;;;1883648;76;21067;-81
2023/08/25 11:25:47;;;;;;;5.28;4.78;;;31.40;92.60;;;;;;1883705;76;21114;-81
2023/08/25 11:28:39;;;;;;;6.45;5.00;;;31.40;92.70;;;;;;1883723;76;21114;-81
2023/08/25 11:31:31;;;;;;;5.87;4.55;;;31.50;92.90;;;;;;1883911;76;21098;-82
2023/08/25 11:34:23;;;;;;;5.10;4.70;;;31.60;92.80;;;;;;1893177;73;21135;-82
2023/08/25 11:37:15;;;;;;;5.10;4.60;;;31.70;92.30;;;;;;1957314;73;21163;-82
2023/08/25 11:40:12;;;;;;;5.15;4.65;;;31.70;91.40;;;;;;1957631;73;21222;-82
2023/08/25 11:43:05;;;;;;;6.07;4.37;;;31.80;91.40;;;;;;1957742;73;21499;-82
2023/08/25 11:45:57;;;;;;;5.50;4.60;;;32.00;90.80;;;;;;1957431;73;21082;-82
2023/08/25 11:48:51;;;;;;;7.85;5.30;;;32.10;90.30;;;;;;1957580;73;21094;-82
2023/08/25 11:51:42;;;;;;;5.65;4.70;;;32.20;90.50;;;;;;1957293;73;21128;-82
2023/08/25 11:54:35;;;;;;;5.80;4.70;;;32.40;90.90;;;;;;1957478;73;21079;-82
2023/08/25 11:57:35;;;;;;;6.95;4.90;;;32.30;90.50;;;;;;1957359;73;21400;-82
2023/08/25 12:00:26;;;;;;;5.30;4.70;;;32.40;90.30;;;;;;1927975;73;21358;-82
2023/08/25 12:03:19;;;;;;;5.97;4.30;;;32.30;90.30;;;;;;1956808;73;21129;-82
2023/08/25 12:06:12;;;;;;;4.75;4.28;;;32.50;89.30;;;;;;1956777;73;21176;-82
2023/08/25 12:09:04;;;;;;;5.53;4.00;;;32.60;88.50;;;;;;1956736;73;21102;-82
2023/08/25 12:11:57;;;;;;;5.87;4.62;;;32.80;86.90;;;;;;1956849;73;21183;-82
2023/08/25 12:14:56;;;;;;;7.78;4.85;;;32.70;84.30;;;;;;1956911;73;21063;-82
2023/08/25 12:17:47;;;;;;;4.62;4.22;;;32.70;83.20;;;;;;1956766;73;21101;-82
2023/08/25 12:20:43;;;;;;;5.15;3.98;;;32.80;82.90;;;;;;1956548;73;21114;-82
2023/08/25 12:23:36;;;;;;;4.77;4.37;;;33.10;83.70;;;;;;1956909;73;21204;-82
2023/08/25 12:26:28;;;;;;;5.47;4.70;;;33.30;81.90;;;;;;1956672;73;21109;-82
2023/08/25 12:29:21;;;;;;;5.67;4.03;;;33.40;81.70;;;;;;1956544;73;21521;-82
2023/08/25 12:32:13;;;;;;;4.60;4.20;;;33.60;80.50;;;;;;1956551;73;21482;-82
2023/08/25 12:35:14;;;;;;;5.85;4.20;;;33.80;79.00;;;;;;1956823;73;21124;-82
2023/08/25 12:38:08;;;;;;;6.17;4.83;;;33.90;79.50;;;;;;1929066;73;21085;-82
2023/08/25 12:41:00;;;;;;;5.50;4.20;;;34.10;78.50;;;;;;1901366;75;21155;-82
2023/08/25 12:43:51;;;;;;;5.15;4.10;;;34.10;78.00;;;;;;1901391;75;21617;-82
2023/08/25 12:46:43;;;;;;;5.55;4.78;;;34.20;78.60;;;;;;1901208;75;21423;-83
2023/08/25 12:49:35;;;;;;;4.97;4.53;;;34.30;78.70;;;;;;1871703;76;21138;-82
2023/08/25 12:52:27;;;;;;;6.03;4.87;;;34.20;77.80;;;;;;1883362;76;21287;-82
2023/08/25 12:55:19;;;;;;;4.83;4.33;;;34.30;77.20;;;;;;1883422;76;21542;-82
2023/08/25 12:58:12;;;;;;;5.10;4.70;;;34.40;76.80;;;;;;1883204;76;21632;-82
2023/08/25 13:01:11;;;;;;;4.58;4.17;;;34.50;75.90;;;;;;1883005;76;21457;-82
2023/08/25 13:04:04;;;;;;;5.70;4.85;;;34.70;75.60;;;;;;1883256;76;21067;-82
2023/08/25 13:07:03;;;;;;;5.45;4.72;;;34.70;74.20;;;;;;1906246;75;21086;-82
2023/08/25 13:09:55;;;;;;;6.58;4.97;;;34.70;73.70;;;;;;1915980;75;21170;-82
2023/08/25 13:12:47;;;;;;;5.75;4.55;;;34.90;73.20;;;;;;1915827;75;21105;-82
2023/08/25 13:15:38;;;;;;;6.37;5.75;;;34.90;72.00;;;;;;1916097;75;21157;-82
2023/08/25 13:18:30;;;;;;;5.80;5.25;;;34.90;71.70;;;;;;1916144;75;21138;-82
2023/08/25 13:21:25;;;;;;;6.42;5.25;;;35.00;70.30;;;;;;1916014;75;21192;-82
2023/08/25 13:24:19;;;;;;;6.78;4.70;;;35.10;70.20;;;;;;1916111;75;21090;-82
2023/08/25 13:27:11;;;;;;;8.45;4.97;;;35.00;70.10;;;;;;1916129;75;21123;-82
2023/08/25 13:30:12;;;;;;;7.67;4.67;;;34.80;72.00;;;;;;1916258;75;21057;-82
2023/08/25 13:33:08;;;;;;;7.15;4.78;;;34.40;73.90;;;;;;1903701;75;21048;-82
2023/08/25 13:36:00;;;;;;;5.17;4.67;;;34.10;75.10;;;;;;1903829;75;21099;-82
2023/08/25 13:38:58;;;;;;;5.03;4.47;;;33.60;75.90;;;;;;1903764;75;21094;-82
2023/08/25 13:41:53;;;;;;;5.55;4.53;;;33.40;76.30;;;;;;1903798;75;21146;-82
2023/08/25 13:44:45;;;;;;;6.60;4.87;;;33.30;74.90;;;;;;1903984;75;21179;-83
2023/08/25 13:47:36;;;;;;;5.78;4.72;;;33.10;75.80;;;;;;1903863;75;21233;-82
2023/08/25 13:50:28;;;;;;;5.12;4.62;;;33.20;76.20;;;;;;1904010;74;21153;-83
2023/08/25 13:53:22;;;;;;;5.37;4.53;;;33.30;75.60;;;;;;1903832;75;21176;-83
2023/08/25 13:56:14;;;;;;;5.22;4.72;;;33.20;75.70;;;;;;1903793;75;21084;-83
2023/08/25 13:59:06;;;;;;;5.40;4.53;;;33.30;76.30;;;;;;1903881;75;21139;-82
2023/08/25 14:01:58;;;;;;;5.00;4.15;;;33.50;75.90;;;;;;1903590;75;21115;-82
2023/08/25 14:04:49;;;;;;;4.87;4.37;;;33.50;74.70;;;;;;1903513;75;21627;-82
2023/08/25 14:07:41;;;;;;;5.97;4.67;;;33.50;75.20;;;;;;1903459;75;21172;-82
2023/08/25 14:10:33;;;;;;;5.97;3.98;;;33.70;72.70;;;;;;1903622;75;21092;-83
2023/08/25 14:13:25;;;;;;;7.00;4.72;;;34.30;73.30;;;;;;1903657;75;21622;-82
2023/08/25 14:16:17;;;;;;;5.28;4.37;;;34.50;72.20;;;;;;1903660;75;21589;-82
2023/08/25 14:19:09;;;;;;;5.05;4.20;;;34.90;71.40;;;;;;1903441;75;21084;-83
2023/08/25 14:22:01;;;;;;;4.80;4.22;;;35.20;69.50;;;;;;1903301;75;21095;-82
2023/08/25 14:24:52;;;;;;;5.40;4.05;;;35.20;69.30;;;;;;1903222;75;21080;-84
2023/08/25 14:27:44;;;;;;;4.67;3.95;;;35.20;69.30;;;;;;1903448;75;21574;-83
2023/08/25 14:30:35;;;;;;;3.92;3.62;;;35.30;69.00;;;;;;1903532;75;21122;-83
2023/08/25 14:33:27;;;;;;;7.10;4.10;;;35.40;68.80;;;;;;1903624;75;21426;-82
2023/08/25 14:36:19;;;;;;;6.47;3.65;;;35.40;68.90;;;;;;1903409;75;21198;-83
2023/08/25 14:39:10;;;;;;;3.90;3.22;;;35.30;68.90;;;;;;1903408;75;21151;-82
2023/08/25 14:42:02;;;;;;;4.83;3.80;;;35.20;69.10;;;;;;1903520;75;21122;-83
2023/08/25 14:44:54;;;;;;;4.05;3.65;;;35.50;69.20;;;;;;1903504;75;21060;-83
2023/08/25 14:47:48;;;;;;;4.25;3.90;;;35.60;68.70;;;;;;1903454;75;21137;-83
2023/08/25 14:50:39;;;;;;;4.15;3.75;;;35.60;69.10;;;;;;1915878;74;21118;-84
2023/08/25 14:53:31;;;;;;;4.55;4.05;;;35.80;68.00;;;;;;1925363;74;21395;-84
2023/08/25 14:56:22;;;;;;;4.30;3.92;;;36.00;67.90;;;;;;1925400;74;21187;-83
2023/08/25 14:59:14;;;;;;;3.77;3.47;;;35.90;68.00;;;;;;1925254;74;21046;-83
2023/08/25 15:02:05;;;;;;;5.50;3.58;;;35.90;68.70;;;;;;1925456;74;21074;-82